Strona główna
METAR-TAF:

METAR-TAF

Lotnisko :

Port lotniczy Bużumbura

Bużumbura, Burundi

Szerokość geograficzna: 03-19S, Długość geograficzna: 029-19E, wysokość: 782 m

METAR: brakujący

czas: 05:05 (03:05 UTC)

Prognoza

Raport powstał 4 godziny i 5 minut temu, godzina 23:00 UTC
Prognoza ważna od 28 godzina 00 UTC do 29 godzina 06 UTC
Wiatr 2 kt od północ w porywach dochodzący do 29 kt
Widzialność 10 km lub więcej
Mało chmury na wysokości 2500 ft
Rozproszone chmury na wysokości 9000 ft
Mało chmury na wysokości 3000 ft
Rozproszone chmury na wysokości 10000 ft
Mało chmury na wysokości 2300 ft

TAF: HBBA 272300Z 2800/2906 36003KT 9999 FEW025 SCT090 BECMG2809/2811 18006G29KT 9999 FEW030 SCT100 BECMG2819/2821 04003KT CAVOK BECMG2902/2904 36002KT 9999 FEW023

Obserwacja i prognoza pogody dla ponad 4000 lotnisk (raport METAR i TAF).

Dostępne stacje oznaczono żółtymi i czerwonymi punktami na mapie.

Najedź kursorem aby zobaczyć nazwę stacji.

Kliknij aby zobaczyć obserwacje i prognozy pogody.

Aby zmienić mapę: kliknij na zielony przycisk z czarnym krzyżykiem, aby powiększyć; na zielony przycisk z myślnikiem, aby pomniejszyć; na zielone strzałki, aby przejść do map sąsiednich.


METAR-TAF: